sensor_id;sensor_type;location;lat;lon;timestamp;pressure;altitude;pressure_sealevel;temperature;humidity
11335;BME280;5722;42.620;23.374;2023-07-29T00:01:40;93893.28;;;15.99;100.00
11335;BME280;5722;42.620;23.374;2023-07-29T00:04:11;93921.47;;;16.00;100.00
11335;BME280;5722;42.620;23.374;2023-07-29T00:06:42;93927.31;;;16.02;100.00
11335;BME280;5722;42.620;23.374;2023-07-29T00:09:10;93805.00;;;15.19;100.00
11335;BME280;5722;42.620;23.374;2023-07-29T00:11:41;93902.75;;;15.70;100.00
11335;BME280;5722;42.620;23.374;2023-07-29T00:14:09;93928.91;;;15.98;100.00
11335;BME280;5722;42.620;23.374;2023-07-29T00:16:48;93904.06;;;15.72;100.00
11335;BME280;5722;42.620;23.374;2023-07-29T00:19:17;93895.81;;;15.64;100.00
11335;BME280;5722;42.620;23.374;2023-07-29T00:21:49;93925.91;;;15.79;100.00
11335;BME280;5722;42.620;23.374;2023-07-29T00:24:20;93945.31;;;15.85;100.00
11335;BME280;5722;42.620;23.374;2023-07-29T00:26:48;93913.66;;;15.73;100.00
11335;BME280;5722;42.620;23.374;2023-07-29T00:29:19;93804.09;;;14.99;100.00
11335;BME280;5722;42.620;23.374;2023-07-29T00:31:53;93916.63;;;15.82;100.00
11335;BME280;5722;42.620;23.374;2023-07-29T00:34:26;93910.72;;;15.75;100.00
11335;BME280;5722;42.620;23.374;2023-07-29T00:36:56;93924.06;;;15.80;100.00
11335;BME280;5722;42.620;23.374;2023-07-29T00:39:24;93886.16;;;15.52;100.00
11335;BME280;5722;42.620;23.374;2023-07-29T00:41:54;93923.25;;;15.84;100.00
11335;BME280;5722;42.620;23.374;2023-07-29T00:44:22;93921.94;;;15.92;100.00
11335;BME280;5722;42.620;23.374;2023-07-29T00:46:53;93912.91;;;15.88;100.00
11335;BME280;5722;42.620;23.374;2023-07-29T00:49:23;93910.50;;;15.81;100.00
11335;BME280;5722;42.620;23.374;2023-07-29T00:51:51;93914.25;;;15.91;100.00
11335;BME280;5722;42.620;23.374;2023-07-29T00:54:20;93878.28;;;15.68;100.00
11335;BME280;5722;42.620;23.374;2023-07-29T00:56:48;93912.38;;;15.91;100.00
11335;BME280;5722;42.620;23.374;2023-07-29T00:59:31;93914.53;;;15.94;100.00
11335;BME280;5722;42.620;23.374;2023-07-29T01:02:03;93914.78;;;15.93;100.00
11335;BME280;5722;42.620;23.374;2023-07-29T01:04:33;93904.41;;;15.86;100.00
11335;BME280;5722;42.620;23.374;2023-07-29T01:07:06;93837.75;;;15.35;100.00
11335;BME280;5722;42.620;23.374;2023-07-29T01:09:44;93906.78;;;15.82;100.00
11335;BME280;5722;42.620;23.374;2023-07-29T01:12:22;93879.25;;;15.51;100.00
11335;BME280;5722;42.620;23.374;2023-07-29T01:14:59;93913.63;;;15.68;100.00
11335;BME280;5722;42.620;23.374;2023-07-29T01:17:38;93881.13;;;15.51;100.00
11335;BME280;5722;42.620;23.374;2023-07-29T01:20:11;93828.03;;;15.04;100.00
11335;BME280;5722;42.620;23.374;2023-07-29T01:22:51;93896.63;;;15.22;100.00
11335;BME280;5722;42.620;23.374;2023-07-29T01:25:20;93903.03;;;15.31;100.00
11335;BME280;5722;42.620;23.374;2023-07-29T01:27:49;93906.53;;;15.37;100.00
11335;BME280;5722;42.620;23.374;2023-07-29T01:30:24;93912.66;;;15.37;100.00
11335;BME280;5722;42.620;23.374;2023-07-29T01:32:57;93886.53;;;15.24;100.00
11335;BME280;5722;42.620;23.374;2023-07-29T01:35:35;93874.16;;;14.92;100.00
11335;BME280;5722;42.620;23.374;2023-07-29T01:38:13;93910.91;;;15.16;100.00
11335;BME280;5722;42.620;23.374;2023-07-29T01:40:46;93907.34;;;15.00;100.00
11335;BME280;5722;42.620;23.374;2023-07-29T01:43:18;93804.59;;;14.21;100.00
11335;BME280;5722;42.620;23.374;2023-07-29T01:45:51;93849.38;;;14.45;100.00
11335;BME280;5722;42.620;23.374;2023-07-29T01:48:28;93890.06;;;14.92;100.00
11335;BME280;5722;42.620;23.374;2023-07-29T01:51:00;93886.53;;;14.82;100.00
11335;BME280;5722;42.620;23.374;2023-07-29T01:53:28;93882.09;;;14.87;100.00
11335;BME280;5722;42.620;23.374;2023-07-29T01:55:57;93886.00;;;14.80;100.00
11335;BME280;5722;42.620;23.374;2023-07-29T01:58:27;93880.91;;;14.73;100.00
11335;BME280;5722;42.620;23.374;2023-07-29T02:00:55;93906.72;;;14.83;100.00
11335;BME280;5722;42.620;23.374;2023-07-29T02:03:39;93913.63;;;14.84;100.00
11335;BME280;5722;42.620;23.374;2023-07-29T02:06:07;93908.03;;;14.80;100.00
11335;BME280;5722;42.620;23.374;2023-07-29T02:08:40;93890.38;;;14.64;100.00
11335;BME280;5722;42.620;23.374;2023-07-29T02:11:16;93880.19;;;14.51;100.00
11335;BME280;5722;42.620;23.374;2023-07-29T02:13:46;93905.97;;;14.55;100.00
11335;BME280;5722;42.620;23.374;2023-07-29T02:16:15;93912.69;;;14.68;100.00
11335;BME280;5722;42.620;23.374;2023-07-29T02:18:43;93894.78;;;14.53;100.00
11335;BME280;5722;42.620;23.374;2023-07-29T02:21:11;93925.16;;;14.68;100.00
11335;BME280;5722;42.620;23.374;2023-07-29T02:23:43;93916.72;;;14.71;100.00
11335;BME280;5722;42.620;23.374;2023-07-29T02:26:11;93926.75;;;14.69;100.00
11335;BME280;5722;42.620;23.374;2023-07-29T02:28:49;93928.06;;;14.66;100.00
11335;BME280;5722;42.620;23.374;2023-07-29T02:31:20;93901.91;;;14.48;100.00
11335;BME280;5722;42.620;23.374;2023-07-29T02:33:50;93923.41;;;14.46;100.00
11335;BME280;5722;42.620;23.374;2023-07-29T02:36:18;93826.44;;;13.74;100.00
11335;BME280;5722;42.620;23.374;2023-07-29T02:38:47;93898.50;;;14.25;100.00
11335;BME280;5722;42.620;23.374;2023-07-29T02:41:18;93858.66;;;14.15;100.00
11335;BME280;5722;42.620;23.374;2023-07-29T02:43:53;93915.44;;;14.46;100.00
11335;BME280;5722;42.620;23.374;2023-07-29T02:46:32;93914.31;;;14.42;100.00
11335;BME280;5722;42.620;23.374;2023-07-29T02:49:02;93914.25;;;14.37;100.00
11335;BME280;5722;42.620;23.374;2023-07-29T02:51:39;93913.16;;;14.33;100.00
11335;BME280;5722;42.620;23.374;2023-07-29T02:54:08;93908.06;;;14.26;100.00
11335;BME280;5722;42.620;23.374;2023-07-29T02:56:37;93907.56;;;14.29;100.00
11335;BME280;5722;42.620;23.374;2023-07-29T02:59:18;93915.78;;;14.28;100.00
11335;BME280;5722;42.620;23.374;2023-07-29T03:01:46;93584.34;;;12.14;100.00
11335;BME280;5722;42.620;23.374;2023-07-29T03:04:14;93921.88;;;14.28;100.00
11335;BME280;5722;42.620;23.374;2023-07-29T03:06:42;93920.84;;;14.34;100.00
11335;BME280;5722;42.620;23.374;2023-07-29T03:09:10;93856.16;;;13.55;100.00
11335;BME280;5722;42.620;23.374;2023-07-29T03:11:38;93942.06;;;14.34;100.00
11335;BME280;5722;42.620;23.374;2023-07-29T03:14:22;93924.56;;;14.33;100.00
11335;BME280;5722;42.620;23.374;2023-07-29T03:16:49;93931.03;;;14.43;100.00
11335;BME280;5722;42.620;23.374;2023-07-29T03:19:19;93916.03;;;14.26;100.00
11335;BME280;5722;42.620;23.374;2023-07-29T03:22:00;93942.56;;;14.31;100.00
11335;BME280;5722;42.620;23.374;2023-07-29T03:24:29;93937.28;;;14.31;100.00
11335;BME280;5722;42.620;23.374;2023-07-29T03:27:00;93933.13;;;14.41;100.00
11335;BME280;5722;42.620;23.374;2023-07-29T03:29:34;93949.13;;;14.46;100.00
11335;BME280;5722;42.620;23.374;2023-07-29T03:32:04;93901.97;;;14.26;100.00
11335;BME280;5722;42.620;23.374;2023-07-29T03:34:36;93932.09;;;14.42;100.00
11335;BME280;5722;42.620;23.374;2023-07-29T03:37:08;93744.78;;;12.74;100.00
11335;BME280;5722;42.620;23.374;2023-07-29T03:39:37;93949.22;;;14.56;100.00
11335;BME280;5722;42.620;23.374;2023-07-29T03:42:05;93892.34;;;14.20;100.00
11335;BME280;5722;42.620;23.374;2023-07-29T03:44:38;93935.38;;;14.54;100.00
11335;BME280;5722;42.620;23.374;2023-07-29T03:47:06;93944.72;;;14.56;100.00
11335;BME280;5722;42.620;23.374;2023-07-29T03:49:35;93848.66;;;13.95;100.00
11335;BME280;5722;42.620;23.374;2023-07-29T03:52:03;93918.38;;;14.50;100.00
11335;BME280;5722;42.620;23.374;2023-07-29T03:54:31;93908.84;;;14.54;100.00
11335;BME280;5722;42.620;23.374;2023-07-29T03:56:59;93936.09;;;14.71;100.00
11335;BME280;5722;42.620;23.374;2023-07-29T03:59:26;93934.28;;;14.77;100.00
11335;BME280;5722;42.620;23.374;2023-07-29T04:01:56;93933.88;;;14.63;100.00
11335;BME280;5722;42.620;23.374;2023-07-29T04:04:24;93913.88;;;14.82;100.00
11335;BME280;5722;42.620;23.374;2023-07-29T04:06:54;93760.72;;;14.03;100.00
11335;BME280;5722;42.620;23.374;2023-07-29T04:09:21;93940.72;;;15.23;100.00
11335;BME280;5722;42.620;23.374;2023-07-29T04:11:51;93938.66;;;15.35;100.00
11335;BME280;5722;42.620;23.374;2023-07-29T04:14:19;93940.28;;;15.41;100.00
11335;BME280;5722;42.620;23.374;2023-07-29T04:16:46;93932.59;;;15.45;100.00
11335;BME280;5722;42.620;23.374;2023-07-29T04:19:18;93947.66;;;15.71;100.00
11335;BME280;5722;42.620;23.374;2023-07-29T04:21:52;93953.81;;;15.82;100.00
11335;BME280;5722;42.620;23.374;2023-07-29T04:24:29;93954.13;;;15.91;100.00
11335;BME280;5722;42.620;23.374;2023-07-29T04:26:58;93949.09;;;15.99;100.00
11335;BME280;5722;42.620;23.374;2023-07-29T04:29:28;93948.09;;;16.10;100.00
11335;BME280;5722;42.620;23.374;2023-07-29T04:31:58;93948.09;;;16.21;100.00
11335;BME280;5722;42.620;23.374;2023-07-29T04:34:28;93866.09;;;15.77;100.00
11335;BME280;5722;42.620;23.374;2023-07-29T04:36:59;93956.13;;;16.36;100.00
11335;BME280;5722;42.620;23.374;2023-07-29T04:39:28;93958.56;;;16.42;100.00
11335;BME280;5722;42.620;23.374;2023-07-29T04:42:06;93953.78;;;16.60;100.00
11335;BME280;5722;42.620;23.374;2023-07-29T04:44:34;93948.53;;;16.75;100.00
11335;BME280;5722;42.620;23.374;2023-07-29T04:47:05;93939.19;;;16.83;100.00
11335;BME280;5722;42.620;23.374;2023-07-29T04:49:58;93945.06;;;17.10;100.00
11335;BME280;5722;42.620;23.374;2023-07-29T04:53:01;93951.97;;;17.26;100.00
11335;BME280;5722;42.620;23.374;2023-07-29T04:55:38;93956.72;;;17.45;100.00
11335;BME280;5722;42.620;23.374;2023-07-29T04:58:05;93950.88;;;17.48;100.00
11335;BME280;5722;42.620;23.374;2023-07-29T05:00:33;93957.75;;;17.74;100.00
11335;BME280;5722;42.620;23.374;2023-07-29T05:03:17;93941.25;;;17.77;100.00
11335;BME280;5722;42.620;23.374;2023-07-29T05:05:47;93939.06;;;17.95;100.00
11335;BME280;5722;42.620;23.374;2023-07-29T05:08:50;93963.41;;;18.32;100.00
11335;BME280;5722;42.620;23.374;2023-07-29T05:11:27;93944.22;;;18.30;100.00
11335;BME280;5722;42.620;23.374;2023-07-29T05:14:03;93947.56;;;18.51;100.00
11335;BME280;5722;42.620;23.374;2023-07-29T05:16:35;93936.59;;;18.58;100.00
11335;BME280;5722;42.620;23.374;2023-07-29T05:19:14;93974.03;;;18.92;100.00
11335;BME280;5722;42.620;23.374;2023-07-29T05:25:20;93979.78;;;19.09;100.00
11335;BME280;5722;42.620;23.374;2023-07-29T05:27:57;93877.56;;;18.64;100.00
11335;BME280;5722;42.620;23.374;2023-07-29T05:30:44;93980.09;;;19.36;100.00
11335;BME280;5722;42.620;23.374;2023-07-29T05:33:22;93855.94;;;18.61;100.00
11335;BME280;5722;42.620;23.374;2023-07-29T05:36:38;93984.41;;;19.66;100.00
11335;BME280;5722;42.620;23.374;2023-07-29T05:39:15;93988.53;;;19.83;100.00
11335;BME280;5722;42.620;23.374;2023-07-29T05:41:48;93949.72;;;19.61;100.00
11335;BME280;5722;42.620;23.374;2023-07-29T05:44:28;93992.41;;;19.95;100.00
11335;BME280;5722;42.620;23.374;2023-07-29T05:50:36;93998.13;;;20.32;100.00
11335;BME280;5722;42.620;23.374;2023-07-29T05:53:18;93965.91;;;20.18;100.00
11335;BME280;5722;42.620;23.374;2023-07-29T05:56:10;93997.41;;;20.50;100.00
11335;BME280;5722;42.620;23.374;2023-07-29T05:58:44;93935.09;;;20.20;100.00
11335;BME280;5722;42.620;23.374;2023-07-29T06:01:36;93987.44;;;20.74;100.00
11335;BME280;5722;42.620;23.374;2023-07-29T06:07:44;93993.69;;;20.88;100.00
11335;BME280;5722;42.620;23.374;2023-07-29T06:10:15;93973.97;;;20.79;100.00
11335;BME280;5722;42.620;23.374;2023-07-29T06:12:47;93891.53;;;20.39;100.00
11335;BME280;5722;42.620;23.374;2023-07-29T06:15:24;93996.72;;;21.01;100.00
11335;BME280;5722;42.620;23.374;2023-07-29T06:17:51;93994.22;;;21.23;100.00
11335;BME280;5722;42.620;23.374;2023-07-29T06:20:19;94026.19;;;21.38;100.00
11335;BME280;5722;42.620;23.374;2023-07-29T06:22:46;93989.34;;;21.30;100.00
11335;BME280;5722;42.620;23.374;2023-07-29T06:25:13;93938.56;;;21.01;100.00
11335;BME280;5722;42.620;23.374;2023-07-29T06:27:40;93902.34;;;21.04;100.00
11335;BME280;5722;42.620;23.374;2023-07-29T06:30:08;93989.53;;;21.66;100.00
11335;BME280;5722;42.620;23.374;2023-07-29T06:32:58;93967.66;;;21.73;100.00
11335;BME280;5722;42.620;23.374;2023-07-29T06:35:36;93986.50;;;22.00;100.00
11335;BME280;5722;42.620;23.374;2023-07-29T06:38:03;93944.81;;;21.89;100.00
11335;BME280;5722;42.620;23.374;2023-07-29T06:40:35;93811.88;;;20.96;100.00
11335;BME280;5722;42.620;23.374;2023-07-29T06:43:05;93959.78;;;22.23;99.72
11335;BME280;5722;42.620;23.374;2023-07-29T06:45:33;93960.47;;;22.28;95.07
11335;BME280;5722;42.620;23.374;2023-07-29T06:48:03;93812.19;;;21.40;95.11
11335;BME280;5722;42.620;23.374;2023-07-29T06:50:30;93958.06;;;22.54;90.95
11335;BME280;5722;42.620;23.374;2023-07-29T06:53:01;93975.16;;;22.72;86.72
11335;BME280;5722;42.620;23.374;2023-07-29T06:55:32;93957.63;;;22.75;88.22
11335;BME280;5722;42.620;23.374;2023-07-29T06:58:00;93960.19;;;22.80;87.78
11335;BME280;5722;42.620;23.374;2023-07-29T07:00:36;93974.34;;;22.85;90.88
11335;BME280;5722;42.620;23.374;2023-07-29T07:17:19;93964.53;;;23.48;82.55
11335;BME280;5722;42.620;23.374;2023-07-29T07:19:53;93940.66;;;23.02;80.99
11335;BME280;5722;42.620;23.374;2023-07-29T07:25:17;93959.75;;;23.67;82.73
11335;BME280;5722;42.620;23.374;2023-07-29T07:30:41;93956.75;;;24.00;81.53
11335;BME280;5722;42.620;23.374;2023-07-29T07:33:46;93956.50;;;24.10;86.14
11335;BME280;5722;42.620;23.374;2023-07-29T07:36:14;93908.84;;;23.79;78.42
11335;BME280;5722;42.620;23.374;2023-07-29T07:41:46;93956.69;;;24.22;84.20
11335;BME280;5722;42.620;23.374;2023-07-29T07:44:35;93965.16;;;24.38;82.16
11335;BME280;5722;42.620;23.374;2023-07-29T07:47:03;93959.63;;;24.43;77.42
11335;BME280;5722;42.620;23.374;2023-07-29T07:49:33;93963.63;;;24.54;83.84
11335;BME280;5722;42.620;23.374;2023-07-29T07:52:23;93880.66;;;24.25;80.29
11335;BME280;5722;42.620;23.374;2023-07-29T07:55:15;93958.56;;;24.79;75.58
11335;BME280;5722;42.620;23.374;2023-07-29T07:58:11;93955.72;;;24.75;76.04
11335;BME280;5722;42.620;23.374;2023-07-29T08:01:07;93957.00;;;24.86;75.15
11335;BME280;5722;42.620;23.374;2023-07-29T08:03:37;93961.13;;;24.75;72.61
11335;BME280;5722;42.620;23.374;2023-07-29T08:12:39;93934.34;;;25.05;72.98
11335;BME280;5722;42.620;23.374;2023-07-29T08:15:15;93655.16;;;23.39;71.95
11335;BME280;5722;42.620;23.374;2023-07-29T08:18:16;93965.91;;;25.39;71.64
11335;BME280;5722;42.620;23.374;2023-07-29T08:21:07;93965.44;;;25.45;72.05
11335;BME280;5722;42.620;23.374;2023-07-29T08:23:42;94018.59;;;25.62;74.41
11335;BME280;5722;42.620;23.374;2023-07-29T08:26:11;93965.84;;;25.82;72.82
11335;BME280;5722;42.620;23.374;2023-07-29T08:28:46;93940.78;;;25.55;67.34
11335;BME280;5722;42.620;23.374;2023-07-29T08:31:39;93971.44;;;25.77;69.43
11335;BME280;5722;42.620;23.374;2023-07-29T08:34:08;93943.47;;;25.73;67.64
11335;BME280;5722;42.620;23.374;2023-07-29T08:37:19;93960.25;;;25.96;67.19
11335;BME280;5722;42.620;23.374;2023-07-29T08:40:17;93965.06;;;25.90;65.14
11335;BME280;5722;42.620;23.374;2023-07-29T08:49:27;93953.88;;;26.00;62.30
11335;BME280;5722;42.620;23.374;2023-07-29T08:55:04;93949.13;;;25.97;59.23
11335;BME280;5722;42.620;23.374;2023-07-29T08:57:35;93949.44;;;26.04;58.69
11335;BME280;5722;42.620;23.374;2023-07-29T09:00:07;93741.81;;;24.88;59.27
11335;BME280;5722;42.620;23.374;2023-07-29T09:02:38;93945.03;;;26.38;58.93
11335;BME280;5722;42.620;23.374;2023-07-29T09:05:08;93960.03;;;26.56;56.99
11335;BME280;5722;42.620;23.374;2023-07-29T09:07:52;93936.44;;;26.65;57.31
11335;BME280;5722;42.620;23.374;2023-07-29T09:10:44;93905.28;;;26.30;54.40
11335;BME280;5722;42.620;23.374;2023-07-29T09:13:25;93907.00;;;26.34;53.31
11335;BME280;5722;42.620;23.374;2023-07-29T09:15:59;93956.56;;;26.47;53.08
11335;BME280;5722;42.620;23.374;2023-07-29T09:18:27;93779.19;;;25.54;52.88
11335;BME280;5722;42.620;23.374;2023-07-29T09:21:02;93927.75;;;26.80;54.42
11335;BME280;5722;42.620;23.374;2023-07-29T09:23:42;93944.78;;;27.02;50.53
11335;BME280;5722;42.620;23.374;2023-07-29T09:26:12;93929.19;;;26.99;50.00
11335;BME280;5722;42.620;23.374;2023-07-29T09:28:52;93952.03;;;27.10;49.51
11335;BME280;5722;42.620;23.374;2023-07-29T09:31:36;93926.63;;;27.23;49.99
11335;BME280;5722;42.620;23.374;2023-07-29T09:37:40;93918.72;;;27.18;43.76
11335;BME280;5722;42.620;23.374;2023-07-29T09:40:17;93911.94;;;27.12;44.41
11335;BME280;5722;42.620;23.374;2023-07-29T09:43:01;93915.63;;;27.40;42.56
11335;BME280;5722;42.620;23.374;2023-07-29T09:45:43;93916.13;;;27.55;43.13
11335;BME280;5722;42.620;23.374;2023-07-29T09:48:27;93916.72;;;27.60;41.35
11335;BME280;5722;42.620;23.374;2023-07-29T09:50:55;93912.81;;;27.70;41.16
11335;BME280;5722;42.620;23.374;2023-07-29T09:53:27;93901.88;;;27.66;41.46
11335;BME280;5722;42.620;23.374;2023-07-29T09:56:13;93901.78;;;27.75;41.03
11335;BME280;5722;42.620;23.374;2023-07-29T09:58:46;93937.78;;;27.76;40.22
11335;BME280;5722;42.620;23.374;2023-07-29T10:01:17;93887.66;;;27.69;39.66
11335;BME280;5722;42.620;23.374;2023-07-29T10:03:56;93889.16;;;27.91;40.66
11335;BME280;5722;42.620;23.374;2023-07-29T10:06:41;93894.00;;;27.98;40.49
11335;BME280;5722;42.620;23.374;2023-07-29T10:09:22;93903.59;;;27.95;39.12
11335;BME280;5722;42.620;23.374;2023-07-29T10:11:50;93825.44;;;27.49;39.40
11335;BME280;5722;42.620;23.374;2023-07-29T10:14:19;93929.00;;;28.15;38.92
11335;BME280;5722;42.620;23.374;2023-07-29T10:16:53;93816.63;;;27.52;39.27
11335;BME280;5722;42.620;23.374;2023-07-29T10:19:22;93891.56;;;28.42;40.59
11335;BME280;5722;42.620;23.374;2023-07-29T10:22:03;93881.41;;;28.39;39.02
11335;BME280;5722;42.620;23.374;2023-07-29T10:24:38;93881.72;;;28.49;39.07
11335;BME280;5722;42.620;23.374;2023-07-29T10:27:11;93873.34;;;28.54;38.23
11335;BME280;5722;42.620;23.374;2023-07-29T10:29:43;93872.91;;;28.65;38.23
11335;BME280;5722;42.620;23.374;2023-07-29T10:32:13;93846.13;;;28.51;38.17
11335;BME280;5722;42.620;23.374;2023-07-29T10:34:46;93862.84;;;28.65;38.06
11335;BME280;5722;42.620;23.374;2023-07-29T10:37:29;93864.19;;;28.47;37.40
11335;BME280;5722;42.620;23.374;2023-07-29T10:39:58;93857.69;;;28.76;38.16
11335;BME280;5722;42.620;23.374;2023-07-29T10:43:00;93852.72;;;28.90;35.99
11335;BME280;5722;42.620;23.374;2023-07-29T10:45:40;93852.72;;;28.90;35.40
11335;BME280;5722;42.620;23.374;2023-07-29T10:48:12;93865.91;;;29.04;35.86
11335;BME280;5722;42.620;23.374;2023-07-29T10:50:40;93854.06;;;28.96;35.60
11335;BME280;5722;42.620;23.374;2023-07-29T10:53:08;93846.25;;;28.95;36.66
11335;BME280;5722;42.620;23.374;2023-07-29T10:55:37;93846.66;;;29.09;36.00
11335;BME280;5722;42.620;23.374;2023-07-29T10:58:12;93841.81;;;29.30;35.90
11335;BME280;5722;42.620;23.374;2023-07-29T11:00:43;93843.69;;;29.42;37.45
11335;BME280;5722;42.620;23.374;2023-07-29T11:03:12;93843.63;;;29.54;35.32
11335;BME280;5722;42.620;23.374;2023-07-29T11:05:46;93837.03;;;29.55;35.38
11335;BME280;5722;42.620;23.374;2023-07-29T11:08:27;93833.66;;;29.58;36.09
11335;BME280;5722;42.620;23.374;2023-07-29T11:11:11;93823.38;;;29.83;37.25
11335;BME280;5722;42.620;23.374;2023-07-29T11:13:40;93830.81;;;30.02;34.79
11335;BME280;5722;42.620;23.374;2023-07-29T11:16:11;93779.75;;;29.76;33.37
11335;BME280;5722;42.620;23.374;2023-07-29T11:18:47;93822.50;;;29.95;34.34
11335;BME280;5722;42.620;23.374;2023-07-29T11:21:19;93827.00;;;30.03;34.23
11335;BME280;5722;42.620;23.374;2023-07-29T11:23:47;93805.50;;;29.98;32.87
11335;BME280;5722;42.620;23.374;2023-07-29T11:26:19;93809.06;;;30.02;34.65
11335;BME280;5722;42.620;23.374;2023-07-29T11:28:50;93828.78;;;30.30;33.41
11335;BME280;5722;42.620;23.374;2023-07-29T11:31:20;93823.72;;;30.29;32.96
11335;BME280;5722;42.620;23.374;2023-07-29T11:33:47;93784.13;;;30.12;34.10
11335;BME280;5722;42.620;23.374;2023-07-29T11:36:21;93794.34;;;30.54;34.57
11335;BME280;5722;42.620;23.374;2023-07-29T11:38:53;93635.19;;;29.67;32.85
11335;BME280;5722;42.620;23.374;2023-07-29T11:41:22;93749.59;;;30.67;32.81
11335;BME280;5722;42.620;23.374;2023-07-29T11:43:49;93803.19;;;30.86;32.13
11335;BME280;5722;42.620;23.374;2023-07-29T11:46:23;93803.59;;;30.49;32.05
11335;BME280;5722;42.620;23.374;2023-07-29T11:48:55;93754.22;;;30.12;32.63
11335;BME280;5722;42.620;23.374;2023-07-29T11:51:23;93817.72;;;30.74;34.45
11335;BME280;5722;42.620;23.374;2023-07-29T11:53:51;93799.03;;;31.11;34.62
11335;BME280;5722;42.620;23.374;2023-07-29T11:56:35;93794.00;;;31.33;34.25
11335;BME280;5722;42.620;23.374;2023-07-29T11:59:04;93793.78;;;31.64;33.39
11335;BME280;5722;42.620;23.374;2023-07-29T12:01:33;93680.59;;;30.59;30.74
11335;BME280;5722;42.620;23.374;2023-07-29T12:04:03;93780.88;;;31.38;30.48
11335;BME280;5722;42.620;23.374;2023-07-29T12:06:35;93575.25;;;29.95;31.93
11335;BME280;5722;42.620;23.374;2023-07-29T12:09:13;93731.84;;;31.15;31.21
11335;BME280;5722;42.620;23.374;2023-07-29T12:11:51;93728.88;;;31.24;31.79
11335;BME280;5722;42.620;23.374;2023-07-29T12:14:32;93798.63;;;31.29;31.15
11335;BME280;5722;42.620;23.374;2023-07-29T12:17:08;93699.22;;;30.57;31.46
11335;BME280;5722;42.620;23.374;2023-07-29T12:19:44;93811.34;;;31.05;32.17
11335;BME280;5722;42.620;23.374;2023-07-29T12:22:17;93774.69;;;31.18;31.35
11335;BME280;5722;42.620;23.374;2023-07-29T12:24:45;93762.72;;;31.46;31.96
11335;BME280;5722;42.620;23.374;2023-07-29T12:27:26;93764.66;;;31.22;30.44
11335;BME280;5722;42.620;23.374;2023-07-29T12:29:54;93769.19;;;31.38;31.22
11335;BME280;5722;42.620;23.374;2023-07-29T12:35:25;93724.59;;;31.46;31.12
11335;BME280;5722;42.620;23.374;2023-07-29T12:38:08;93757.63;;;31.67;30.63
11335;BME280;5722;42.620;23.374;2023-07-29T12:40:40;93761.34;;;31.78;29.92
11335;BME280;5722;42.620;23.374;2023-07-29T12:43:10;93716.47;;;31.49;30.22
11335;BME280;5722;42.620;23.374;2023-07-29T12:45:41;93744.56;;;31.76;30.51
11335;BME280;5722;42.620;23.374;2023-07-29T12:48:13;93759.69;;;31.97;29.54
11335;BME280;5722;42.620;23.374;2023-07-29T12:50:41;93662.75;;;31.46;30.82
11335;BME280;5722;42.620;23.374;2023-07-29T12:53:14;93748.19;;;31.84;29.49
11335;BME280;5722;42.620;23.374;2023-07-29T12:55:45;93762.97;;;31.83;30.35
11335;BME280;5722;42.620;23.374;2023-07-29T12:58:34;93731.41;;;31.82;29.03
11335;BME280;5722;42.620;23.374;2023-07-29T13:01:02;93754.88;;;31.87;30.13
11335;BME280;5722;42.620;23.374;2023-07-29T13:03:31;93735.63;;;31.76;29.18
11335;BME280;5722;42.620;23.374;2023-07-29T13:06:00;93752.09;;;32.09;29.42
11335;BME280;5722;42.620;23.374;2023-07-29T13:08:30;93742.94;;;31.98;28.61
11335;BME280;5722;42.620;23.374;2023-07-29T13:10:58;93752.19;;;31.90;29.52
11335;BME280;5722;42.620;23.374;2023-07-29T13:13:34;93748.22;;;32.37;31.02
11335;BME280;5722;42.620;23.374;2023-07-29T13:16:06;93662.03;;;32.02;29.68
11335;BME280;5722;42.620;23.374;2023-07-29T13:18:38;93771.00;;;32.52;28.13
11335;BME280;5722;42.620;23.374;2023-07-29T13:21:08;93752.41;;;32.04;28.01
11335;BME280;5722;42.620;23.374;2023-07-29T13:23:39;93755.22;;;31.62;28.56
11335;BME280;5722;42.620;23.374;2023-07-29T13:26:15;93714.13;;;31.48;28.28
11335;BME280;5722;42.620;23.374;2023-07-29T13:28:55;93717.78;;;31.82;28.09
11335;BME280;5722;42.620;23.374;2023-07-29T13:31:27;93745.06;;;32.08;28.57
11335;BME280;5722;42.620;23.374;2023-07-29T13:33:54;93766.56;;;32.40;27.24
11335;BME280;5722;42.620;23.374;2023-07-29T13:36:23;93655.81;;;31.52;26.09
11335;BME280;5722;42.620;23.374;2023-07-29T13:38:55;93732.41;;;31.97;26.49
11335;BME280;5722;42.620;23.374;2023-07-29T13:41:52;93644.72;;;31.38;27.19
11335;BME280;5722;42.620;23.374;2023-07-29T13:44:23;93740.34;;;32.05;26.54
11335;BME280;5722;42.620;23.374;2023-07-29T13:46:52;93731.44;;;32.08;25.78
11335;BME280;5722;42.620;23.374;2023-07-29T13:49:22;93750.59;;;32.16;25.70
11335;BME280;5722;42.620;23.374;2023-07-29T13:51:50;93723.66;;;32.10;26.41
11335;BME280;5722;42.620;23.374;2023-07-29T13:54:18;93689.75;;;32.34;26.72
11335;BME280;5722;42.620;23.374;2023-07-29T13:56:54;93725.38;;;33.16;24.73
11335;BME280;5722;42.620;23.374;2023-07-29T13:59:24;93717.44;;;33.04;25.32
11335;BME280;5722;42.620;23.374;2023-07-29T14:01:54;93675.53;;;32.85;24.86
11335;BME280;5722;42.620;23.374;2023-07-29T14:04:25;93721.09;;;34.07;23.68
11335;BME280;5722;42.620;23.374;2023-07-29T14:06:52;93695.41;;;34.22;23.42
11335;BME280;5722;42.620;23.374;2023-07-29T14:09:21;93702.31;;;34.82;24.21
11335;BME280;5722;42.620;23.374;2023-07-29T14:11:53;93687.19;;;35.23;22.90
11335;BME280;5722;42.620;23.374;2023-07-29T14:14:28;93706.41;;;35.48;23.25
11335;BME280;5722;42.620;23.374;2023-07-29T14:16:56;93662.47;;;34.98;22.13
11335;BME280;5722;42.620;23.374;2023-07-29T14:19:25;93716.22;;;35.56;21.61
11335;BME280;5722;42.620;23.374;2023-07-29T14:21:56;93720.09;;;35.62;22.07
11335;BME280;5722;42.620;23.374;2023-07-29T14:24:24;93693.84;;;35.33;22.45
11335;BME280;5722;42.620;23.374;2023-07-29T14:26:51;93686.34;;;34.94;23.00